Sparks Glencoe, Maryland
Current Conditions -  °F | °C
As of 5:55 PM on Friday 28 Nov 2014 (Local Time) from KDMW Reporting Station
Scattered Clouds Scattered Clouds  
Wind Chill: 24°   Ceiling: Unl
Heat Index: 30°   Visibility: 10mi
Dew Point: 18°   Wind: 6mph
Humidity: 60%   Direction: 320°NW
Pressure: 30.24"   Gusts: NA
Location:  39.54°N, 76.67°W
Report Text: KDMW 282255Z AUTO 32005KT 10SM SCT090 M01/M08 A3024 RMK AO2
Loading
Personal Weather Stations






























Interactive Weather Map New forecast layout! Learn more

10-Day Weather Forecast

Advertisements
Track Severe Weather on mobile